Cape Charles, Virginia
Current Conditions -  °F | °C
As of 8:58 AM on Saturday 25 Oct 2014 (Local Time) from KLFI Reporting Station
Clear Clear  
Wind Chill: 55°   Ceiling: Unl
Heat Index: 55°   Visibility: 10mi
Dew Point: 47°   Wind: 3mph
Humidity: 76%   Direction: 300°WNW
Pressure: 29.99"   Gusts: NA
Location:  37.27°N, 76.02°W
Report Text: KLFI 251258Z AUTO 30003KT 10SM CLR 13/09 A2999 RMK AO2 SLP162 T01280086 $
Loading
Personal Weather Stations






























Interactive Weather Map
Tropical Storm Tracking
New forecast layout! Learn more

10-Day Weather Forecast

Advertisements
Track Severe Weather on mobile